Météo Nord-Pas-de-Calais   La météo au plus près de chez vous

Station météorologique

Observations météo à Saulces-Champenoises (08401)

08401001 147 m Dernier relevé à 18:36
25.6°C
Humidité 53 % Vent 30.6 km/h

Journée consultée

Vendredi 4 Septembre 2026

Synthèse de la journée

Périodes de référence en UTC

Température maximale

28.7°C

à 16:00

06h 06h

Température minimale

17.1°C

à 07:42

18h 18h

Rafale maximale

49 km/h

à 16:06

00h 00h

Précipitations

0 mm

Cumul quotidien

06h 06h

Graphiques de la journée

Heure locale Réduire

Données détaillées

Relevés météo

Pas de 6 minutes Afficher les relevés infra-horaires
Relevés météo détaillés à Saulces-Champenoises pour le Vendredi 4 Septembre 2026
Heure Température °C Point de rosée °C Humidité % Vent moyen (raf.), km/h Précipitations mm
18:36 25.6 °C 15.6 °C 54 % 28 km/h (41 km/h) 0 mm0 mm
18:30 26.3 °C 16 °C 53 % 29 km/h (40 km/h) 0 mm0 mm
18:24 26.4 °C 16 °C 53 % 29 km/h (39 km/h) 0 mm0 mm
18:18 26.3 °C 15.7 °C 52 % 33 km/h (47 km/h) 0 mm0 mm
18:12 26.5 °C 16.1 °C 53 % 32 km/h (47 km/h) 0 mm0 mm
18:06 26.5 °C 16.7 °C 55 % 31 km/h (45 km/h) 0 mm0 mm
18:00 26.4 °C 16.3 °C 54 % 29 km/h (42 km/h) 0 mm0 mm
17:54 26.4 °C 16.3 °C 54 % 30 km/h (42 km/h) 0 mm0 mm
17:48 26.7 °C 16.6 °C 54 % 27 km/h (40 km/h) 0 mm0 mm
17:42 26.4 °C 16.3 °C 54 % 30 km/h (43 km/h) 0 mm0 mm
17:36 26.8 °C 16.4 °C 53 % 31 km/h (43 km/h) 0 mm0 mm
17:30 27.3 °C 16.9 °C 53 % 30 km/h (41 km/h) 0 mm0 mm
17:24 26.6 °C 16.8 °C 55 % 30 km/h (41 km/h) 0 mm0 mm
17:18 27.3 °C 16.9 °C 53 % 30 km/h (40 km/h) 0 mm0 mm
17:12 27.3 °C 17.2 °C 54 % 28 km/h (42 km/h) 0 mm0 mm
17:06 27.5 °C 17.7 °C 55 % 29 km/h (41 km/h) 0 mm0 mm
17:00 26.8 °C 17 °C 55 % 27 km/h (41 km/h) 0 mm0 mm
16:54 27.6 °C 17.2 °C 53 % 24 km/h (40 km/h) 0 mm0 mm
16:48 27.3 °C 17.5 °C 55 % 28 km/h (41 km/h) 0 mm0 mm
16:42 27.6 °C 17.2 °C 53 % 29 km/h (41 km/h) 0 mm0 mm
16:36 27.9 °C 17.1 °C 52 % 31 km/h (42 km/h) 0 mm0 mm
16:30 27.7 °C 17.2 °C 53 % 33 km/h (42 km/h) 0 mm0 mm
16:24 27.4 °C 16.4 °C 51 % 31 km/h (40 km/h) 0 mm0 mm
16:18 27.9 °C 16.8 °C 51 % 30 km/h (40 km/h) 0 mm0 mm
16:12 27.7 °C 16.6 °C 51 % 33 km/h (44 km/h) 0 mm0 mm
16:06 27.9 °C 16.5 °C 50 % 34 km/h (49 km/h) 0 mm0 mm
16:00 27.3 °C 16.3 °C 51 % 30 km/h (47 km/h) 0 mm0 mm
15:54 27.8 °C 16.7 °C 51 % 32 km/h (44 km/h) 0 mm0 mm
15:48 28.4 °C 16 °C 47 % 31 km/h (41 km/h) 0 mm0 mm
15:42 28.3 °C 16.6 °C 49 % 31 km/h (44 km/h) 0 mm0 mm
15:36 28.2 °C 16.1 °C 48 % 30 km/h (43 km/h) 0 mm0 mm
15:30 28 °C 16.3 °C 49 % 29 km/h (44 km/h) 0 mm0 mm
15:24 27.8 °C 16.4 °C 50 % 30 km/h (46 km/h) 0 mm0 mm
15:18 28 °C 16.3 °C 49 % 31 km/h (46 km/h) 0 mm0 mm
15:12 27.9 °C 16.8 °C 51 % 30 km/h (42 km/h) 0 mm0 mm
15:06 27.8 °C 16.1 °C 49 % 31 km/h (45 km/h) 0 mm0 mm
15:00 28.2 °C 16.5 °C 49 % 31 km/h (45 km/h) 0 mm0 mm
14:54 28.3 °C 16.6 °C 49 % 28 km/h (40 km/h) 0 mm0 mm
14:48 28 °C 16.6 °C 50 % 27 km/h (36 km/h) 0 mm0 mm
14:42 27 °C 16.3 °C 52 % 29 km/h (41 km/h) 0 mm0 mm
14:36 28 °C 17.2 °C 52 % 30 km/h (41 km/h) 0 mm0 mm
14:30 27.8 °C 17.3 °C 53 % 30 km/h (42 km/h) 0 mm0 mm
14:24 28 °C 16.9 °C 51 % 30 km/h (42 km/h) 0 mm0 mm
14:18 27.3 °C 16.6 °C 52 % 31 km/h (40 km/h) 0 mm0 mm
14:12 27.9 °C 17.7 °C 54 % 32 km/h (42 km/h) 0 mm0 mm
14:06 27.7 °C 17.5 °C 54 % 31 km/h (40 km/h) 0 mm0 mm
14:00 27 °C 16.9 °C 54 % 33 km/h (45 km/h) 0 mm0 mm
13:54 27.1 °C 17 °C 54 % 34 km/h (45 km/h) 0 mm0 mm
13:48 27.6 °C 16.9 °C 52 % 32 km/h (45 km/h) 0 mm0 mm
13:42 27.1 °C 17.3 °C 55 % 34 km/h (44 km/h) 0 mm0 mm
13:36 27.4 °C 17.6 °C 55 % 32 km/h (42 km/h) 0 mm0 mm
13:30 27.2 °C 17.4 °C 55 % 33 km/h (48 km/h) 0 mm0 mm
13:24 26.5 °C 17 °C 56 % 31 km/h (48 km/h) 0 mm0 mm
13:18 26.4 °C 17.2 °C 57 % 32 km/h (45 km/h) 0 mm0 mm
13:12 26.1 °C 16.9 °C 57 % 27 km/h (40 km/h) 0 mm0 mm
13:06 26.4 °C 17.7 °C 59 % 26 km/h (39 km/h) 0 mm0 mm
13:00 26.6 °C 17.4 °C 57 % 26 km/h (39 km/h) 0 mm0 mm
12:54 27.2 °C 16.8 °C 53 % 25 km/h (39 km/h) 0 mm0 mm
12:48 26.5 °C 18.1 °C 60 % 25 km/h (38 km/h) 0 mm0 mm
12:42 26.5 °C 17 °C 56 % 28 km/h (41 km/h) 0 mm0 mm
12:36 26.7 °C 17.2 °C 56 % 25 km/h (40 km/h) 0 mm0 mm
12:30 26.5 °C 17.8 °C 59 % 26 km/h (40 km/h) 0 mm0 mm
12:24 26.4 °C 17.5 °C 58 % 25 km/h (37 km/h) 0 mm0 mm
12:18 25.9 °C 17 °C 58 % 25 km/h (40 km/h) 0 mm0 mm
12:12 25.4 °C 17.1 °C 60 % 24 km/h (40 km/h) 0 mm0 mm
12:06 25.6 °C 17.8 °C 62 % 24 km/h (37 km/h) 0 mm0 mm
12:00 26.5 °C 17.6 °C 58 % 28 km/h (39 km/h) 0 mm0 mm
11:54 25.6 °C 17 °C 59 % 26 km/h (39 km/h) 0 mm0 mm
11:48 25.5 °C 17.2 °C 60 % 24 km/h (38 km/h) 0 mm0 mm
11:42 25.5 °C 17.2 °C 60 % 23 km/h (35 km/h) 0 mm0 mm
11:36 25.3 °C 17.2 °C 61 % 26 km/h (39 km/h) 0 mm0 mm
11:30 25 °C 16.7 °C 60 % 30 km/h (39 km/h) 0 mm0 mm
11:24 25.2 °C 17.1 °C 61 % 26 km/h (36 km/h) 0 mm0 mm
11:18 24.5 °C 17.2 °C 64 % 27 km/h (40 km/h) 0 mm0 mm
11:12 24.6 °C 16.8 °C 62 % 26 km/h (36 km/h) 0 mm0 mm
11:06 24.9 °C 16.9 °C 61 % 26 km/h (35 km/h) 0 mm0 mm
11:00 24.9 °C 16.9 °C 61 % 26 km/h (35 km/h) 0 mm0 mm
10:54 24.5 °C 16.7 °C 62 % 23 km/h (33 km/h) 0 mm0 mm
10:48 24.3 °C 16.8 °C 63 % 24 km/h (34 km/h) 0 mm0 mm
10:42 24.2 °C 17 °C 64 % 25 km/h (36 km/h) 0 mm0 mm
10:36 23.9 °C 17.2 °C 66 % 25 km/h (36 km/h) 0 mm0 mm
10:30 23.9 °C 17.6 °C 68 % 23 km/h (33 km/h) 0 mm0 mm
10:24 23.5 °C 17.3 °C 68 % 24 km/h (35 km/h) 0 mm0 mm
10:18 23.4 °C 17.8 °C 71 % 23 km/h (32 km/h) 0 mm0 mm
10:12 23.2 °C 17.9 °C 72 % 24 km/h (33 km/h) 0 mm0 mm
10:06 23.3 °C 18 °C 72 % 20 km/h (30 km/h) 0 mm0 mm
10:00 23 °C 18.1 °C 74 % 15 km/h (26 km/h) 0 mm0 mm
09:54 22.2 °C 17.6 °C 75 % 15 km/h (19 km/h) 0 mm0 mm
09:48 22 °C 17.6 °C 76 % 14 km/h (19 km/h) 0 mm0 mm
09:42 21.7 °C 17.3 °C 76 % 14 km/h (19 km/h) 0 mm0 mm
09:36 21.4 °C 17.2 °C 77 % 16 km/h (23 km/h) 0 mm0 mm
09:30 21.2 °C 17 °C 77 % 17 km/h (23 km/h) 0 mm0 mm
09:24 21.1 °C 17.3 °C 79 % 14 km/h (22 km/h) 0 mm0 mm
09:18 20.8 °C 17.2 °C 80 % 13 km/h (18 km/h) 0 mm0 mm
09:12 20.5 °C 17.1 °C 81 % 12 km/h (16 km/h) 0 mm0 mm
09:06 20.3 °C 17.1 °C 82 % 13 km/h (17 km/h) 0 mm0 mm
09:00 19.8 °C 16.8 °C 83 % 14 km/h (19 km/h) 0 mm0 mm
08:54 19.5 °C 16.7 °C 84 % 14 km/h (19 km/h) 0 mm0 mm
08:48 19.5 °C 16.9 °C 85 % 14 km/h (17 km/h) 0 mm0 mm
08:42 19.2 °C 16.8 °C 86 % 13 km/h (17 km/h) 0 mm0 mm
08:36 18.9 °C 16.7 °C 87 % 13 km/h (16 km/h) 0 mm0 mm
08:30 18.6 °C 16.6 °C 88 % 13 km/h (16 km/h) 0 mm0 mm
08:24 18.3 °C 16.5 °C 89 % 12 km/h (16 km/h) 0 mm0 mm
08:18 18.1 °C 16.4 °C 90 % 11 km/h (14 km/h) 0 mm0 mm
08:12 17.9 °C 16.2 °C 90 % 12 km/h (15 km/h) 0 mm0 mm
08:06 17.8 °C 16.1 °C 90 % 13 km/h (17 km/h) 0 mm0 mm
08:00 17.6 °C 16.1 °C 91 % 13 km/h (17 km/h) 0 mm0 mm
07:54 17.4 °C 16.1 °C 92 % 13 km/h (17 km/h) 0 mm0 mm
07:48 17.2 °C 15.9 °C 92 % 12 km/h (15 km/h) 0 mm0 mm
07:42 17.1 °C 15.8 °C 92 % 12 km/h (14 km/h) 0 mm0 mm
07:36 17.2 °C 15.7 °C 91 % 12 km/h (14 km/h) 0 mm0 mm
07:30 17.2 °C 15.7 °C 91 % 12 km/h (13 km/h) 0 mm0 mm
07:24 17.3 °C 15.8 °C 91 % 12 km/h (13 km/h) 0 mm0 mm
07:18 17.3 °C 15.8 °C 91 % 11 km/h (13 km/h) 0 mm0 mm
07:12 17.3 °C 15.8 °C 91 % 10 km/h (13 km/h) 0 mm0 mm
07:06 17.3 °C 15.8 °C 91 % 10 km/h (12 km/h) 0 mm0 mm
07:00 17.3 °C 15.6 °C 90 % 10 km/h (12 km/h) 0 mm0 mm
06:54 17.4 °C 15.7 °C 90 % 10 km/h (12 km/h) 0 mm0 mm
06:48 17.5 °C 15.7 °C 89 % 10 km/h (13 km/h) 0 mm0 mm
06:42 17.7 °C 15.9 °C 89 % 11 km/h (15 km/h) 0 mm0 mm
06:36 17.8 °C 16.1 °C 90 % 12 km/h (15 km/h) 0 mm0 mm
06:30 17.7 °C 16 °C 90 % 12 km/h (15 km/h) 0 mm0 mm
06:24 17.8 °C 16.1 °C 90 % 12 km/h (15 km/h) 0 mm0 mm
06:18 17.7 °C 15.9 °C 89 % 11 km/h (14 km/h) 0 mm0 mm
06:12 17.8 °C 16 °C 89 % 11 km/h (14 km/h) 0 mm0 mm
06:06 17.9 °C 16.1 °C 89 % 10 km/h (13 km/h) 0 mm0 mm
06:00 18.1 °C 16.1 °C 88 % 11 km/h (14 km/h) 0 mm0 mm
05:54 18.3 °C 16.3 °C 88 % 12 km/h (14 km/h) 0 mm0 mm
05:48 18.3 °C 16.1 °C 87 % 12 km/h (16 km/h) 0 mm0 mm
05:42 18.3 °C 16.1 °C 87 % 12 km/h (16 km/h) 0 mm0 mm
05:36 18.4 °C 16.2 °C 87 % 12 km/h (15 km/h) 0 mm0 mm
05:30 18.5 °C 16.3 °C 87 % 13 km/h (16 km/h) 0 mm0 mm
05:24 18.5 °C 16.1 °C 86 % 12 km/h (16 km/h) 0 mm0 mm
05:18 18.6 °C 16 °C 85 % 11 km/h (15 km/h) 0 mm0 mm
05:12 18.9 °C 16.5 °C 86 % 11 km/h (15 km/h) 0 mm0 mm
05:06 18.9 °C 16.3 °C 85 % 10 km/h (15 km/h) 0 mm0 mm
05:00 19 °C 16.4 °C 85 % 11 km/h (14 km/h) 0 mm0 mm
04:54 19.1 °C 16.5 °C 85 % 11 km/h (14 km/h) 0 mm0 mm
04:48 19.2 °C 16.6 °C 85 % 10 km/h (16 km/h) 0 mm0 mm
04:42 19.2 °C 16.6 °C 85 % 9 km/h (14 km/h) 0 mm0 mm
04:36 19.4 °C 16.6 °C 84 % 9 km/h (12 km/h) 0 mm0 mm
04:30 19.6 °C 16.6 °C 83 % 8 km/h (11 km/h) 0 mm0 mm
04:24 19.7 °C 16.7 °C 83 % 8 km/h (10 km/h) 0 mm0 mm
04:18 19.8 °C 16.8 °C 83 % 8 km/h (12 km/h) 0 mm0 mm
04:12 19.9 °C 16.9 °C 83 % 9 km/h (12 km/h) 0 mm0 mm
04:06 20 °C 17 °C 83 % 10 km/h (13 km/h) 0 mm0 mm
04:00 20.1 °C 17.1 °C 83 % 10 km/h (14 km/h) 0 mm0 mm
03:54 20.2 °C 17.2 °C 83 % 10 km/h (14 km/h) 0 mm0 mm
03:48 20.4 °C 17.2 °C 82 % 9 km/h (12 km/h) 0 mm0 mm
03:42 20.5 °C 17.3 °C 82 % 9 km/h (12 km/h) 0 mm0 mm
03:36 20.5 °C 17.3 °C 82 % 9 km/h (11 km/h) 0 mm0 mm
03:30 20.5 °C 17.3 °C 82 % 9 km/h (12 km/h) 0 mm0 mm
03:24 20.5 °C 17.3 °C 82 % 10 km/h (12 km/h) 0 mm0 mm
03:18 20.5 °C 17.3 °C 82 % 9 km/h (12 km/h) 0 mm0 mm
03:12 20.6 °C 17.4 °C 82 % 9 km/h (12 km/h) 0 mm0 mm
03:06 20.6 °C 17.4 °C 82 % 9 km/h (12 km/h) 0 mm0 mm
03:00 20.5 °C 17.5 °C 83 % 8 km/h (12 km/h) 0 mm0 mm
02:54 20.5 °C 17.5 °C 83 % 7 km/h (10 km/h) 0 mm0 mm
02:48 20.4 °C 17.4 °C 83 % 7 km/h (9 km/h) 0 mm0 mm
02:42 20.4 °C 17.4 °C 83 % 6 km/h (8 km/h) 0 mm0 mm
02:36 20.4 °C 17.2 °C 82 % 8 km/h (11 km/h) 0 mm0 mm
02:30 20.5 °C 17.3 °C 82 % 9 km/h (11 km/h) 0 mm0 mm
02:24 20.4 °C 17.4 °C 83 % 8 km/h (10 km/h) 0 mm0 mm
02:18 20.3 °C 17.3 °C 83 % 7 km/h (8 km/h) 0 mm0 mm
02:12 20.3 °C 17.3 °C 83 % 8 km/h (9 km/h) 0 mm0 mm
02:06 20.4 °C 17.2 °C 82 % 8 km/h (10 km/h) 0 mm0 mm
02:00 20.5 °C 17.3 °C 82 % 8 km/h (9 km/h) 0 mm0 mm
01:54 20.6 °C 17.4 °C 82 % 7 km/h (9 km/h) 0 mm0 mm
01:48 20.7 °C 17.3 °C 81 % 8 km/h (9 km/h) 0 mm0 mm
01:42 20.7 °C 17.3 °C 81 % 8 km/h (10 km/h) 0 mm0 mm
01:36 20.7 °C 17.3 °C 81 % 9 km/h (11 km/h) 0 mm0 mm
01:30 20.8 °C 17.4 °C 81 % 8 km/h (12 km/h) 0 mm0 mm
01:24 20.8 °C 17.4 °C 81 % 8 km/h (10 km/h) 0 mm0 mm
01:18 20.8 °C 17.2 °C 80 % 8 km/h (10 km/h) 0 mm0 mm
01:12 21 °C 17.2 °C 79 % 7 km/h (9 km/h) 0 mm0 mm
01:06 21.2 °C 17.2 °C 78 % 8 km/h (13 km/h) 0 mm0 mm
01:00 21.5 °C 17.3 °C 77 % 10 km/h (14 km/h) 0 mm0 mm
00:54 21.7 °C 17.3 °C 76 % 11 km/h (15 km/h) 0 mm0 mm
00:48 22 °C 17.8 °C 77 % 11 km/h (15 km/h) 0 mm0 mm
00:42 21.4 °C 17.6 °C 79 % 9 km/h (13 km/h) 0 mm0 mm
00:36 21.3 °C 17.5 °C 79 % 8 km/h (11 km/h) 0 mm0 mm
00:30 21.4 °C 17.4 °C 78 % 9 km/h (13 km/h) 0 mm0 mm
00:24 21.5 °C 17.5 °C 78 % 10 km/h (14 km/h) 0 mm0 mm
00:18 21.3 °C 17.5 °C 79 % 9 km/h (12 km/h) 0 mm0 mm
00:12 21.5 °C 17.5 °C 78 % 8 km/h (10 km/h) 0 mm0 mm
00:06 21.5 °C 17.5 °C 78 % 9 km/h (11 km/h) 0 mm0 mm
00:00 21.7 °C 17.5 °C 77 % 10 km/h (13 km/h) 0 mm0 mm

Données via Météo-France

Relevés météo à Saulces-Champenoises

Cette page rassemble les observations de la station de Saulces-Champenoises : température, humidité, vent, précipitations et pression atmosphérique. Les graphiques facilitent le suivi de la journée, tandis que le tableau donne accès aux mesures horaires et infra-horaires disponibles.

Pour replacer ces mesures dans leur contexte, consultez la climatologie de Saulces-Champenoises ainsi que ses normales et records. Retrouvez aussi la carte des observations météo en temps réel.